createdAt,value
2024-03-02T00:00:24.279Z,7.64
2024-03-02T00:05:26.360Z,7.58
2024-03-02T00:10:41.638Z,7.53
2024-03-02T00:16:06.920Z,7.45
2024-03-02T00:21:14.639Z,7.40
2024-03-02T00:26:17.384Z,7.35
2024-03-02T00:31:21.434Z,7.28
2024-03-02T00:36:28.146Z,7.25
2024-03-02T00:41:31.992Z,7.23
2024-03-02T00:46:38.510Z,7.23
2024-03-02T00:51:41.020Z,7.18
2024-03-02T00:56:44.136Z,7.15
2024-03-02T01:01:46.292Z,7.06
2024-03-02T01:06:49.322Z,6.96
2024-03-02T01:11:51.398Z,6.86
2024-03-02T01:16:53.890Z,6.78
2024-03-02T01:21:55.846Z,6.72
2024-03-02T01:26:58.061Z,6.65
2024-03-02T01:31:59.869Z,6.60
2024-03-02T01:37:01.774Z,6.56
2024-03-02T01:42:03.799Z,6.53
2024-03-02T01:47:05.886Z,6.51
2024-03-02T01:52:08.849Z,6.47
2024-03-02T01:57:11.187Z,6.42
2024-03-02T02:02:13.059Z,6.37
2024-03-02T02:07:15.873Z,6.33
2024-03-02T02:12:17.911Z,6.30
2024-03-02T02:17:20.648Z,6.26
2024-03-02T02:22:22.858Z,6.23
2024-03-02T02:27:24.860Z,6.23
2024-03-02T02:32:26.793Z,6.22
2024-03-02T02:37:28.597Z,6.23
2024-03-02T02:42:30.595Z,6.24
2024-03-02T02:47:35.091Z,6.24
2024-03-02T02:52:41.274Z,6.25
2024-03-02T02:57:45.287Z,6.17
2024-03-02T03:02:50.294Z,6.43
2024-03-02T03:08:02.792Z,6.41
2024-03-02T03:13:04.949Z,6.37
2024-03-02T03:18:09.021Z,6.34
2024-03-02T03:23:11.093Z,6.33
2024-03-02T03:28:12.891Z,6.34
2024-03-02T03:33:15.533Z,6.25
2024-03-02T03:38:17.579Z,6.18
2024-03-02T03:43:19.528Z,6.13
2024-03-02T03:48:21.561Z,6.12
2024-03-02T03:53:23.799Z,6.15
2024-03-02T03:58:25.790Z,6.11
2024-03-02T04:03:27.691Z,6.05
2024-03-02T04:08:29.580Z,6.01
2024-03-02T04:13:31.535Z,6.01
2024-03-02T04:18:33.814Z,6.04
2024-03-02T04:23:35.693Z,6.17
2024-03-02T04:28:37.608Z,6.21
2024-03-02T04:33:39.787Z,6.20
2024-03-02T04:38:41.695Z,6.18
2024-03-02T04:43:43.629Z,6.11
2024-03-02T04:48:46.041Z,6.11
2024-03-02T04:53:48.114Z,6.14
2024-03-02T04:58:50.317Z,6.14
2024-03-02T05:03:52.435Z,6.16
2024-03-02T05:08:54.659Z,6.20
2024-03-02T05:13:57.083Z,6.19
2024-03-02T05:18:59.072Z,6.19
2024-03-02T05:24:01.349Z,6.23
2024-03-02T05:29:04.344Z,6.28
2024-03-02T05:34:06.937Z,6.32
2024-03-02T05:39:10.646Z,6.34
2024-03-02T05:44:13.781Z,6.37
2024-03-02T05:49:15.745Z,6.35
2024-03-02T05:54:17.497Z,6.29
2024-03-02T05:59:19.497Z,6.26
2024-03-02T06:04:21.477Z,6.26
2024-03-02T06:09:25.849Z,6.31
2024-03-02T06:14:27.898Z,6.36
2024-03-02T06:19:29.982Z,6.42
2024-03-02T06:24:31.919Z,6.53
2024-03-02T06:29:35.024Z,6.65
2024-03-02T06:34:36.864Z,6.83
2024-03-02T06:39:38.857Z,7.00
2024-03-02T06:44:40.821Z,7.19
2024-03-02T06:49:50.994Z,7.43
2024-03-02T06:54:52.964Z,7.51
2024-03-02T06:59:59.997Z,7.47
2024-03-02T07:05:02.263Z,7.83
2024-03-02T07:10:06.077Z,7.98
2024-03-02T07:15:08.805Z,8.16
2024-03-02T07:20:13.796Z,8.33
2024-03-02T07:30:21.123Z,8.79
2024-03-02T07:35:27.986Z,9.12
2024-03-02T07:40:30.199Z,9.42
2024-03-02T07:45:32.828Z,9.66
2024-03-02T07:50:36.235Z,9.89
2024-03-02T07:55:38.156Z,10.14
2024-03-02T08:00:41.712Z,10.43
2024-03-02T08:05:43.769Z,10.57
2024-03-02T08:10:45.956Z,10.66
2024-03-02T08:15:48.084Z,10.66
2024-03-02T08:20:50.121Z,10.50
2024-03-02T08:25:52.301Z,10.45
2024-03-02T08:30:54.524Z,10.46
2024-03-02T08:35:58.237Z,10.53
2024-03-02T08:41:00.299Z,10.61
2024-03-02T08:46:02.319Z,10.73
2024-03-02T08:51:07.330Z,10.90
2024-03-02T08:56:09.388Z,11.12
2024-03-02T09:01:12.430Z,11.36
2024-03-02T09:06:15.155Z,11.46
2024-03-02T09:11:17.416Z,11.56
2024-03-02T09:16:19.316Z,11.80
2024-03-02T09:21:21.211Z,12.07
2024-03-02T09:26:23.730Z,12.14
2024-03-02T09:31:25.608Z,12.24
2024-03-02T09:36:27.494Z,12.41
2024-03-02T09:41:29.613Z,12.50
2024-03-02T09:46:31.697Z,12.64
2024-03-02T09:51:33.902Z,12.86
2024-03-02T09:56:35.830Z,13.01
2024-03-02T10:01:37.798Z,13.18
2024-03-02T10:06:39.661Z,13.34
2024-03-02T10:11:41.606Z,13.56
2024-03-02T10:16:44.976Z,13.79
2024-03-02T10:21:47.431Z,14.08
2024-03-02T10:26:50.591Z,14.22
2024-03-02T10:31:54.034Z,14.20
2024-03-02T10:36:57.188Z,14.10
2024-03-02T10:42:00.100Z,14.10
2024-03-02T10:47:17.419Z,14.14
2024-03-02T10:52:24.593Z,14.31
2024-03-02T10:57:34.266Z,14.39
2024-03-02T11:02:40.345Z,14.42
2024-03-02T11:08:33.943Z,14.60
2024-03-02T11:13:38.672Z,14.57
2024-03-02T11:18:43.151Z,14.52
2024-03-02T11:23:45.511Z,14.51
2024-03-02T11:28:49.153Z,14.68
2024-03-02T11:33:51.252Z,14.73
2024-03-02T11:38:55.251Z,14.74
2024-03-02T11:43:57.435Z,14.76
2024-03-02T11:49:00.850Z,14.78
2024-03-02T11:54:04.163Z,14.77
2024-03-02T11:59:06.179Z,14.91
2024-03-02T12:04:08.554Z,15.14
2024-03-02T12:09:16.072Z,15.30
2024-03-02T12:14:18.340Z,15.45
2024-03-02T12:19:21.827Z,15.69
2024-03-02T12:24:25.993Z,15.87
2024-03-02T12:29:28.005Z,16.05
2024-03-02T12:34:30.127Z,16.09
2024-03-02T12:39:34.495Z,15.99
2024-03-02T12:44:36.688Z,15.95
2024-03-02T12:49:38.915Z,15.92
2024-03-02T12:54:41.022Z,15.92
2024-03-02T12:59:47.826Z,15.87
2024-03-02T13:04:55.998Z,15.85
2024-03-02T13:09:58.583Z,15.79
2024-03-02T13:15:00.586Z,15.55
2024-03-02T13:20:02.680Z,15.30
2024-03-02T13:25:05.788Z,15.03
2024-03-02T13:30:10.883Z,14.81
2024-03-02T13:35:13.012Z,14.58
2024-03-02T13:40:19.136Z,14.31
2024-03-02T13:45:21.062Z,14.09
2024-03-02T13:50:23.028Z,13.83
2024-03-02T13:55:25.320Z,13.58
2024-03-02T14:00:27.762Z,13.33
2024-03-02T14:05:29.796Z,13.07
2024-03-02T14:10:31.980Z,12.93
2024-03-02T14:15:41.536Z,12.88
2024-03-02T14:20:46.331Z,12.82
2024-03-02T14:25:49.378Z,12.68
2024-03-02T14:30:52.024Z,12.51
2024-03-02T14:35:54.079Z,12.36
2024-03-02T14:40:56.081Z,12.24
2024-03-02T14:45:58.838Z,12.24
2024-03-02T14:51:01.664Z,12.28
2024-03-02T14:56:07.646Z,12.34
2024-03-02T15:01:25.507Z,12.39
2024-03-02T15:06:45.915Z,12.48
2024-03-02T15:11:48.098Z,12.60
2024-03-02T15:16:50.814Z,12.64
2024-03-02T15:21:53.016Z,12.57
2024-03-02T15:26:55.573Z,12.46
2024-03-02T15:31:58.639Z,12.35
2024-03-02T15:37:01.623Z,12.34
2024-03-02T15:42:05.207Z,12.37
2024-03-02T15:47:09.034Z,12.39
2024-03-02T15:52:11.008Z,12.34
2024-03-02T15:57:13.906Z,12.19
2024-03-02T16:02:15.748Z,11.98
2024-03-02T16:07:17.713Z,11.82
2024-03-02T16:12:19.665Z,11.67
2024-03-02T16:17:21.653Z,11.54
2024-03-02T16:22:24.283Z,11.33
2024-03-02T16:27:26.243Z,11.11
2024-03-02T16:32:28.236Z,10.92
2024-03-02T16:37:30.494Z,10.82
2024-03-02T16:42:33.016Z,10.80
2024-03-02T16:47:34.956Z,10.71
2024-03-02T16:52:37.062Z,10.58
2024-03-02T16:57:39.065Z,10.48
2024-03-02T17:02:44.054Z,10.37
2024-03-02T17:07:45.825Z,10.29
2024-03-02T17:12:47.840Z,10.26
2024-03-02T17:17:49.872Z,10.29
2024-03-02T17:22:51.927Z,10.31
2024-03-02T17:28:29.514Z,10.31
2024-03-02T17:33:32.567Z,10.24
2024-03-02T17:38:34.549Z,10.19
2024-03-02T17:43:36.446Z,10.16
2024-03-02T17:48:38.521Z,10.13
2024-03-02T17:53:40.668Z,10.08
2024-03-02T17:58:42.553Z,10.01
2024-03-02T18:03:44.557Z,9.99
2024-03-02T18:08:46.516Z,10.00
2024-03-02T18:13:48.600Z,10.07
2024-03-02T18:18:50.933Z,10.12
2024-03-02T18:23:52.978Z,10.14
2024-03-02T18:28:54.880Z,10.11
2024-03-02T18:33:56.930Z,10.01
2024-03-02T18:38:59.436Z,9.93
2024-03-02T18:44:04.658Z,9.82
2024-03-02T18:49:07.133Z,9.71
2024-03-02T18:54:09.833Z,9.63
2024-03-02T18:59:11.688Z,9.56
2024-03-02T19:04:13.732Z,9.50
2024-03-02T19:09:16.483Z,9.46
2024-03-02T19:14:18.294Z,9.39
2024-03-02T19:19:20.246Z,9.34
2024-03-02T19:24:22.290Z,9.31
2024-03-02T19:29:29.721Z,9.21
2024-03-02T19:34:31.608Z,9.11
2024-03-02T19:39:37.437Z,9.05
2024-03-02T19:44:41.763Z,8.95
2024-03-02T19:49:43.673Z,8.83
2024-03-02T19:54:45.807Z,8.72
2024-03-02T19:59:47.773Z,8.67
2024-03-02T20:04:49.624Z,8.65
2024-03-02T20:09:52.019Z,8.63
2024-03-02T20:14:54.106Z,8.58
2024-03-02T20:19:56.409Z,8.53
2024-03-02T20:24:58.413Z,8.48
2024-03-02T20:30:17.549Z,8.52
2024-03-02T20:35:21.609Z,8.60
2024-03-02T20:40:23.697Z,8.64
2024-03-02T20:45:25.861Z,8.61
2024-03-02T20:50:27.934Z,8.52
2024-03-02T20:55:30.116Z,8.44
2024-03-02T21:00:32.331Z,8.36
2024-03-02T21:05:34.294Z,8.34
2024-03-02T21:10:36.374Z,8.32
2024-03-02T21:15:38.348Z,8.27
2024-03-02T21:20:40.373Z,8.27
2024-03-02T21:25:43.151Z,8.34
2024-03-02T21:30:45.355Z,8.39
2024-03-02T21:35:57.758Z,8.41
2024-03-02T21:40:59.669Z,8.38
2024-03-02T21:46:01.779Z,8.39
2024-03-02T21:51:04.137Z,8.43
2024-03-02T21:56:06.716Z,8.51
2024-03-02T22:01:08.764Z,8.48
2024-03-02T22:06:10.874Z,8.39
2024-03-02T22:11:14.630Z,8.32
2024-03-02T22:16:17.853Z,8.27
2024-03-02T22:21:19.999Z,8.28
2024-03-02T22:26:24.071Z,8.30
2024-03-02T22:31:26.108Z,8.30
2024-03-02T22:36:28.107Z,8.27
2024-03-02T22:41:30.419Z,8.19
2024-03-02T22:46:32.368Z,8.15
2024-03-02T22:51:34.404Z,8.17
2024-03-02T22:56:36.358Z,8.21
2024-03-02T23:01:40.852Z,8.28
2024-03-02T23:06:44.134Z,8.30
2024-03-02T23:11:46.198Z,8.31
2024-03-02T23:16:48.763Z,8.32
2024-03-02T23:21:51.212Z,8.34
2024-03-02T23:26:53.748Z,8.38
2024-03-02T23:31:55.689Z,8.39
2024-03-02T23:36:57.748Z,8.35
2024-03-02T23:41:59.697Z,8.28
2024-03-02T23:47:01.779Z,8.22
2024-03-02T23:52:03.784Z,8.09
2024-03-02T23:57:06.172Z,7.97
